sensor_id;sensor_type;location;lat;lon;timestamp;temperature;humidity
32698;DHT22;19087;51.062;3.754;2023-08-08T00:01:52;15.90;99.90
32698;DHT22;19087;51.062;3.754;2023-08-08T00:04:19;15.80;99.90
32698;DHT22;19087;51.062;3.754;2023-08-08T00:06:51;15.90;99.90
32698;DHT22;19087;51.062;3.754;2023-08-08T00:09:17;15.90;99.90
32698;DHT22;19087;51.062;3.754;2023-08-08T00:11:44;15.70;99.90
32698;DHT22;19087;51.062;3.754;2023-08-08T00:14:10;15.70;99.90
32698;DHT22;19087;51.062;3.754;2023-08-08T00:16:36;15.70;99.90
32698;DHT22;19087;51.062;3.754;2023-08-08T00:19:02;15.70;99.90
32698;DHT22;19087;51.062;3.754;2023-08-08T00:21:28;15.60;99.90
32698;DHT22;19087;51.062;3.754;2023-08-08T00:23:54;15.60;99.90
32698;DHT22;19087;51.062;3.754;2023-08-08T00:26:20;15.70;99.90
32698;DHT22;19087;51.062;3.754;2023-08-08T00:28:46;15.60;99.90
32698;DHT22;19087;51.062;3.754;2023-08-08T00:31:11;15.60;99.90
32698;DHT22;19087;51.062;3.754;2023-08-08T00:33:37;15.60;99.90
32698;DHT22;19087;51.062;3.754;2023-08-08T00:36:03;15.50;99.90
32698;DHT22;19087;51.062;3.754;2023-08-08T00:38:31;15.50;99.90
32698;DHT22;19087;51.062;3.754;2023-08-08T00:40:57;15.50;99.90
32698;DHT22;19087;51.062;3.754;2023-08-08T00:43:23;15.50;99.90
32698;DHT22;19087;51.062;3.754;2023-08-08T00:45:51;15.40;99.90
32698;DHT22;19087;51.062;3.754;2023-08-08T00:48:18;15.40;99.90
32698;DHT22;19087;51.062;3.754;2023-08-08T00:50:47;15.50;99.90
32698;DHT22;19087;51.062;3.754;2023-08-08T00:53:15;15.60;99.90
32698;DHT22;19087;51.062;3.754;2023-08-08T00:55:44;15.50;99.90
32698;DHT22;19087;51.062;3.754;2023-08-08T00:58:10;15.50;99.90
32698;DHT22;19087;51.062;3.754;2023-08-08T01:00:36;15.40;99.90
32698;DHT22;19087;51.062;3.754;2023-08-08T01:03:02;15.40;99.90
32698;DHT22;19087;51.062;3.754;2023-08-08T01:05:41;15.40;99.90
32698;DHT22;19087;51.062;3.754;2023-08-08T01:08:07;15.30;99.90
32698;DHT22;19087;51.062;3.754;2023-08-08T01:10:35;15.20;99.90
32698;DHT22;19087;51.062;3.754;2023-08-08T01:13:08;15.20;99.90
32698;DHT22;19087;51.062;3.754;2023-08-08T01:15:35;15.30;99.90
32698;DHT22;19087;51.062;3.754;2023-08-08T01:18:05;15.30;99.90
32698;DHT22;19087;51.062;3.754;2023-08-08T01:20:32;15.20;99.90
32698;DHT22;19087;51.062;3.754;2023-08-08T01:25:39;15.20;99.90
32698;DHT22;19087;51.062;3.754;2023-08-08T01:28:07;15.20;99.90
32698;DHT22;19087;51.062;3.754;2023-08-08T01:30:34;15.20;99.90
32698;DHT22;19087;51.062;3.754;2023-08-08T01:33:01;15.30;99.90
32698;DHT22;19087;51.062;3.754;2023-08-08T01:35:31;15.20;99.90
32698;DHT22;19087;51.062;3.754;2023-08-08T01:38:08;15.30;99.90
32698;DHT22;19087;51.062;3.754;2023-08-08T01:40:36;15.20;99.90
32698;DHT22;19087;51.062;3.754;2023-08-08T01:43:04;15.20;99.90
32698;DHT22;19087;51.062;3.754;2023-08-08T01:45:30;15.20;99.90
32698;DHT22;19087;51.062;3.754;2023-08-08T01:47:56;15.10;99.90
32698;DHT22;19087;51.062;3.754;2023-08-08T01:50:22;15.10;99.90
32698;DHT22;19087;51.062;3.754;2023-08-08T01:52:48;15.10;99.90
32698;DHT22;19087;51.062;3.754;2023-08-08T01:55:16;15.20;99.90
32698;DHT22;19087;51.062;3.754;2023-08-08T01:57:42;15.20;99.90
32698;DHT22;19087;51.062;3.754;2023-08-08T02:00:08;15.20;99.90
32698;DHT22;19087;51.062;3.754;2023-08-08T02:02:36;15.10;99.90
32698;DHT22;19087;51.062;3.754;2023-08-08T02:05:02;15.00;99.90
32698;DHT22;19087;51.062;3.754;2023-08-08T02:07:29;14.90;99.90
32698;DHT22;19087;51.062;3.754;2023-08-08T02:09:55;14.90;99.90
32698;DHT22;19087;51.062;3.754;2023-08-08T02:12:21;15.00;99.90
32698;DHT22;19087;51.062;3.754;2023-08-08T02:14:47;14.90;99.90
32698;DHT22;19087;51.062;3.754;2023-08-08T02:17:13;14.80;99.90
32698;DHT22;19087;51.062;3.754;2023-08-08T02:19:38;14.80;99.90
32698;DHT22;19087;51.062;3.754;2023-08-08T02:22:04;14.80;99.90
32698;DHT22;19087;51.062;3.754;2023-08-08T02:24:30;14.80;99.90
32698;DHT22;19087;51.062;3.754;2023-08-08T02:26:56;14.70;99.90
32698;DHT22;19087;51.062;3.754;2023-08-08T02:29:21;14.70;99.90
32698;DHT22;19087;51.062;3.754;2023-08-08T02:31:48;14.60;99.90
32698;DHT22;19087;51.062;3.754;2023-08-08T02:34:16;14.70;99.90
32698;DHT22;19087;51.062;3.754;2023-08-08T02:36:41;14.70;99.90
32698;DHT22;19087;51.062;3.754;2023-08-08T02:39:07;14.70;99.90
32698;DHT22;19087;51.062;3.754;2023-08-08T02:41:34;14.80;99.90
32698;DHT22;19087;51.062;3.754;2023-08-08T02:44:01;14.80;99.90
32698;DHT22;19087;51.062;3.754;2023-08-08T02:46:28;14.80;99.90
32698;DHT22;19087;51.062;3.754;2023-08-08T02:48:56;14.80;99.90
32698;DHT22;19087;51.062;3.754;2023-08-08T02:51:23;14.70;99.90
32698;DHT22;19087;51.062;3.754;2023-08-08T02:53:49;14.70;99.90
32698;DHT22;19087;51.062;3.754;2023-08-08T02:56:15;14.70;99.90
32698;DHT22;19087;51.062;3.754;2023-08-08T02:58:41;14.60;99.90
32698;DHT22;19087;51.062;3.754;2023-08-08T03:01:09;14.70;99.90
32698;DHT22;19087;51.062;3.754;2023-08-08T03:03:35;14.80;99.90
32698;DHT22;19087;51.062;3.754;2023-08-08T03:06:03;14.80;99.90
32698;DHT22;19087;51.062;3.754;2023-08-08T03:08:31;14.70;99.90
32698;DHT22;19087;51.062;3.754;2023-08-08T03:10:56;14.60;99.90
32698;DHT22;19087;51.062;3.754;2023-08-08T03:13:24;14.70;99.90
32698;DHT22;19087;51.062;3.754;2023-08-08T03:15:51;14.60;99.90
32698;DHT22;19087;51.062;3.754;2023-08-08T03:18:17;14.70;99.90
32698;DHT22;19087;51.062;3.754;2023-08-08T03:20:43;14.70;99.90
32698;DHT22;19087;51.062;3.754;2023-08-08T03:23:10;14.70;99.90
32698;DHT22;19087;51.062;3.754;2023-08-08T03:25:36;14.80;99.90
32698;DHT22;19087;51.062;3.754;2023-08-08T03:28:03;14.70;99.90
32698;DHT22;19087;51.062;3.754;2023-08-08T03:30:28;14.60;99.90
32698;DHT22;19087;51.062;3.754;2023-08-08T03:32:54;14.70;99.90
32698;DHT22;19087;51.062;3.754;2023-08-08T03:35:22;14.70;99.90
32698;DHT22;19087;51.062;3.754;2023-08-08T03:37:47;14.70;99.90
32698;DHT22;19087;51.062;3.754;2023-08-08T03:40:14;14.70;99.90
32698;DHT22;19087;51.062;3.754;2023-08-08T03:42:41;14.60;99.90
32698;DHT22;19087;51.062;3.754;2023-08-08T03:45:07;14.60;99.90
32698;DHT22;19087;51.062;3.754;2023-08-08T03:47:33;14.60;99.90
32698;DHT22;19087;51.062;3.754;2023-08-08T03:49:59;14.60;99.90
32698;DHT22;19087;51.062;3.754;2023-08-08T03:52:26;14.50;99.90
32698;DHT22;19087;51.062;3.754;2023-08-08T03:54:52;14.50;99.90
32698;DHT22;19087;51.062;3.754;2023-08-08T03:57:18;14.50;99.90
32698;DHT22;19087;51.062;3.754;2023-08-08T03:59:44;14.50;99.90
32698;DHT22;19087;51.062;3.754;2023-08-08T04:02:10;14.60;99.90
32698;DHT22;19087;51.062;3.754;2023-08-08T04:04:36;14.50;99.90
32698;DHT22;19087;51.062;3.754;2023-08-08T04:07:01;14.50;99.90
32698;DHT22;19087;51.062;3.754;2023-08-08T04:09:27;14.40;99.90
32698;DHT22;19087;51.062;3.754;2023-08-08T04:11:54;14.30;99.90
32698;DHT22;19087;51.062;3.754;2023-08-08T04:14:21;14.40;99.90
32698;DHT22;19087;51.062;3.754;2023-08-08T04:16:48;14.40;99.90
32698;DHT22;19087;51.062;3.754;2023-08-08T04:19:14;14.40;99.90
32698;DHT22;19087;51.062;3.754;2023-08-08T04:21:40;14.50;99.90
32698;DHT22;19087;51.062;3.754;2023-08-08T04:24:08;14.40;99.90
32698;DHT22;19087;51.062;3.754;2023-08-08T04:26:34;14.50;99.90
32698;DHT22;19087;51.062;3.754;2023-08-08T04:29:02;14.60;99.90
32698;DHT22;19087;51.062;3.754;2023-08-08T04:31:28;14.70;99.90
32698;DHT22;19087;51.062;3.754;2023-08-08T04:33:57;14.70;99.90
32698;DHT22;19087;51.062;3.754;2023-08-08T04:36:30;14.70;99.90
32698;DHT22;19087;51.062;3.754;2023-08-08T04:38:56;14.60;99.90
32698;DHT22;19087;51.062;3.754;2023-08-08T04:41:22;14.70;99.90
32698;DHT22;19087;51.062;3.754;2023-08-08T04:43:48;14.80;99.90
32698;DHT22;19087;51.062;3.754;2023-08-08T04:46:13;14.90;99.90
32698;DHT22;19087;51.062;3.754;2023-08-08T04:48:39;15.00;99.90
32698;DHT22;19087;51.062;3.754;2023-08-08T04:51:08;15.00;99.90
32698;DHT22;19087;51.062;3.754;2023-08-08T04:53:39;15.00;99.90
32698;DHT22;19087;51.062;3.754;2023-08-08T04:56:25;14.90;99.90
32698;DHT22;19087;51.062;3.754;2023-08-08T04:59:00;15.00;99.90
32698;DHT22;19087;51.062;3.754;2023-08-08T05:01:27;14.90;99.90
32698;DHT22;19087;51.062;3.754;2023-08-08T05:03:54;15.00;99.90
32698;DHT22;19087;51.062;3.754;2023-08-08T05:06:21;15.10;99.90
32698;DHT22;19087;51.062;3.754;2023-08-08T05:08:51;15.20;99.90
32698;DHT22;19087;51.062;3.754;2023-08-08T05:11:17;15.30;99.90
32698;DHT22;19087;51.062;3.754;2023-08-08T05:13:42;15.30;99.90
32698;DHT22;19087;51.062;3.754;2023-08-08T05:16:08;15.30;99.90
32698;DHT22;19087;51.062;3.754;2023-08-08T05:18:34;15.50;99.90
32698;DHT22;19087;51.062;3.754;2023-08-08T05:21:00;15.70;99.90
32698;DHT22;19087;51.062;3.754;2023-08-08T05:23:26;15.80;99.90
32698;DHT22;19087;51.062;3.754;2023-08-08T05:25:52;16.00;99.90
32698;DHT22;19087;51.062;3.754;2023-08-08T05:28:19;16.10;99.90
32698;DHT22;19087;51.062;3.754;2023-08-08T05:30:47;16.10;99.90
32698;DHT22;19087;51.062;3.754;2023-08-08T05:33:13;16.20;99.90
32698;DHT22;19087;51.062;3.754;2023-08-08T05:35:40;16.20;99.90
32698;DHT22;19087;51.062;3.754;2023-08-08T05:38:06;16.10;99.90
32698;DHT22;19087;51.062;3.754;2023-08-08T05:40:35;16.10;99.90
32698;DHT22;19087;51.062;3.754;2023-08-08T05:43:04;16.20;99.90
32698;DHT22;19087;51.062;3.754;2023-08-08T05:45:29;16.20;99.90
32698;DHT22;19087;51.062;3.754;2023-08-08T05:47:56;16.30;99.90
32698;DHT22;19087;51.062;3.754;2023-08-08T05:50:22;16.40;99.90
32698;DHT22;19087;51.062;3.754;2023-08-08T05:52:52;16.40;99.90
32698;DHT22;19087;51.062;3.754;2023-08-08T05:55:19;16.50;99.90
32698;DHT22;19087;51.062;3.754;2023-08-08T05:57:45;16.60;99.90
32698;DHT22;19087;51.062;3.754;2023-08-08T06:00:12;16.60;99.90
32698;DHT22;19087;51.062;3.754;2023-08-08T06:02:38;16.70;99.90
32698;DHT22;19087;51.062;3.754;2023-08-08T06:05:05;16.80;99.90
32698;DHT22;19087;51.062;3.754;2023-08-08T06:07:31;16.90;99.90
32698;DHT22;19087;51.062;3.754;2023-08-08T06:09:56;16.90;99.90
32698;DHT22;19087;51.062;3.754;2023-08-08T06:12:22;17.00;99.90
32698;DHT22;19087;51.062;3.754;2023-08-08T06:14:51;17.10;99.90
32698;DHT22;19087;51.062;3.754;2023-08-08T06:17:17;17.30;99.90
32698;DHT22;19087;51.062;3.754;2023-08-08T06:19:42;17.40;99.90
32698;DHT22;19087;51.062;3.754;2023-08-08T06:22:09;17.50;99.90
32698;DHT22;19087;51.062;3.754;2023-08-08T06:24:35;17.70;99.90
32698;DHT22;19087;51.062;3.754;2023-08-08T06:27:01;18.30;99.90
32698;DHT22;19087;51.062;3.754;2023-08-08T06:29:27;19.30;99.90
32698;DHT22;19087;51.062;3.754;2023-08-08T06:31:53;20.10;99.90
32698;DHT22;19087;51.062;3.754;2023-08-08T06:34:19;21.00;99.90
32698;DHT22;19087;51.062;3.754;2023-08-08T06:36:44;21.60;99.90
32698;DHT22;19087;51.062;3.754;2023-08-08T06:39:15;21.70;99.90
32698;DHT22;19087;51.062;3.754;2023-08-08T06:41:43;21.90;99.90
32698;DHT22;19087;51.062;3.754;2023-08-08T06:44:08;22.00;99.90
32698;DHT22;19087;51.062;3.754;2023-08-08T06:46:36;21.90;99.90
32698;DHT22;19087;51.062;3.754;2023-08-08T06:49:08;22.00;99.90
32698;DHT22;19087;51.062;3.754;2023-08-08T06:51:34;22.00;99.90
32698;DHT22;19087;51.062;3.754;2023-08-08T06:54:00;21.80;99.90
32698;DHT22;19087;51.062;3.754;2023-08-08T06:56:26;21.60;99.90
32698;DHT22;19087;51.062;3.754;2023-08-08T06:58:54;21.50;99.90
32698;DHT22;19087;51.062;3.754;2023-08-08T07:01:23;21.60;99.90
32698;DHT22;19087;51.062;3.754;2023-08-08T07:03:49;21.70;99.90
32698;DHT22;19087;51.062;3.754;2023-08-08T07:06:20;21.50;99.90
32698;DHT22;19087;51.062;3.754;2023-08-08T07:08:49;21.20;99.90
32698;DHT22;19087;51.062;3.754;2023-08-08T07:11:17;21.10;99.90
32698;DHT22;19087;51.062;3.754;2023-08-08T07:13:43;21.10;99.90
32698;DHT22;19087;51.062;3.754;2023-08-08T07:16:08;21.10;99.90
32698;DHT22;19087;51.062;3.754;2023-08-08T07:18:34;21.00;99.90
32698;DHT22;19087;51.062;3.754;2023-08-08T07:21:00;20.80;99.90
32698;DHT22;19087;51.062;3.754;2023-08-08T07:23:27;20.70;99.90
32698;DHT22;19087;51.062;3.754;2023-08-08T07:25:53;20.60;99.90
32698;DHT22;19087;51.062;3.754;2023-08-08T07:28:19;20.80;99.90
32698;DHT22;19087;51.062;3.754;2023-08-08T07:30:59;20.70;99.90
32698;DHT22;19087;51.062;3.754;2023-08-08T07:33:25;20.70;99.90
32698;DHT22;19087;51.062;3.754;2023-08-08T07:35:50;20.40;99.90
32698;DHT22;19087;51.062;3.754;2023-08-08T07:38:16;20.30;99.90
32698;DHT22;19087;51.062;3.754;2023-08-08T07:40:42;20.30;99.90
32698;DHT22;19087;51.062;3.754;2023-08-08T07:43:07;20.40;99.90
32698;DHT22;19087;51.062;3.754;2023-08-08T07:45:33;20.30;99.90
32698;DHT22;19087;51.062;3.754;2023-08-08T07:47:59;20.20;99.90
32698;DHT22;19087;51.062;3.754;2023-08-08T07:50:25;20.00;99.90
32698;DHT22;19087;51.062;3.754;2023-08-08T07:52:51;20.00;99.90
32698;DHT22;19087;51.062;3.754;2023-08-08T07:55:17;20.10;99.90
32698;DHT22;19087;51.062;3.754;2023-08-08T07:57:53;19.90;99.90
32698;DHT22;19087;51.062;3.754;2023-08-08T08:00:20;20.00;99.90
32698;DHT22;19087;51.062;3.754;2023-08-08T08:02:47;20.00;99.90
32698;DHT22;19087;51.062;3.754;2023-08-08T08:05:15;19.80;99.90
32698;DHT22;19087;51.062;3.754;2023-08-08T08:07:41;19.70;99.90
32698;DHT22;19087;51.062;3.754;2023-08-08T08:10:09;19.60;99.90
32698;DHT22;19087;51.062;3.754;2023-08-08T08:13:00;19.50;99.90
32698;DHT22;19087;51.062;3.754;2023-08-08T08:15:28;19.50;99.90
32698;DHT22;19087;51.062;3.754;2023-08-08T08:17:54;19.20;99.90
32698;DHT22;19087;51.062;3.754;2023-08-08T08:20:20;19.20;99.90
32698;DHT22;19087;51.062;3.754;2023-08-08T08:22:46;19.10;99.90
32698;DHT22;19087;51.062;3.754;2023-08-08T08:25:14;19.00;99.90
32698;DHT22;19087;51.062;3.754;2023-08-08T08:27:41;19.20;99.90
32698;DHT22;19087;51.062;3.754;2023-08-08T08:30:09;19.50;99.90
32698;DHT22;19087;51.062;3.754;2023-08-08T08:32:41;19.80;99.90
32698;DHT22;19087;51.062;3.754;2023-08-08T08:35:12;19.90;99.90
32698;DHT22;19087;51.062;3.754;2023-08-08T08:37:38;20.30;99.90
32698;DHT22;19087;51.062;3.754;2023-08-08T08:40:04;20.60;99.90
32698;DHT22;19087;51.062;3.754;2023-08-08T08:42:38;21.10;99.90
32698;DHT22;19087;51.062;3.754;2023-08-08T08:45:04;21.50;99.90
32698;DHT22;19087;51.062;3.754;2023-08-08T08:47:33;21.50;99.90
32698;DHT22;19087;51.062;3.754;2023-08-08T08:50:03;21.50;99.90
32698;DHT22;19087;51.062;3.754;2023-08-08T08:52:30;21.70;99.90
32698;DHT22;19087;51.062;3.754;2023-08-08T08:54:58;21.70;99.90
32698;DHT22;19087;51.062;3.754;2023-08-08T08:57:24;21.60;99.90
32698;DHT22;19087;51.062;3.754;2023-08-08T08:59:51;21.40;99.90
32698;DHT22;19087;51.062;3.754;2023-08-08T09:02:18;21.40;99.90
32698;DHT22;19087;51.062;3.754;2023-08-08T09:04:44;21.30;99.90
32698;DHT22;19087;51.062;3.754;2023-08-08T09:07:12;21.20;99.90
32698;DHT22;19087;51.062;3.754;2023-08-08T09:09:42;21.20;99.90
32698;DHT22;19087;51.062;3.754;2023-08-08T09:12:08;21.60;99.90
32698;DHT22;19087;51.062;3.754;2023-08-08T09:14:34;21.90;99.90
32698;DHT22;19087;51.062;3.754;2023-08-08T09:17:13;22.40;99.90
32698;DHT22;19087;51.062;3.754;2023-08-08T09:19:44;22.90;99.90
32698;DHT22;19087;51.062;3.754;2023-08-08T09:22:13;23.00;99.70
32698;DHT22;19087;51.062;3.754;2023-08-08T09:24:40;23.20;99.00
32698;DHT22;19087;51.062;3.754;2023-08-08T09:27:14;23.50;98.60
32698;DHT22;19087;51.062;3.754;2023-08-08T09:29:43;23.60;97.00
32698;DHT22;19087;51.062;3.754;2023-08-08T09:32:12;23.80;95.90
32698;DHT22;19087;51.062;3.754;2023-08-08T09:34:44;23.50;96.30
32698;DHT22;19087;51.062;3.754;2023-08-08T09:37:12;23.30;96.40
32698;DHT22;19087;51.062;3.754;2023-08-08T09:39:40;23.10;94.80
32698;DHT22;19087;51.062;3.754;2023-08-08T09:42:08;22.90;95.60
32698;DHT22;19087;51.062;3.754;2023-08-08T09:44:33;22.60;95.60
32698;DHT22;19087;51.062;3.754;2023-08-08T09:47:03;22.60;95.70
32698;DHT22;19087;51.062;3.754;2023-08-08T09:49:31;22.60;96.20
32698;DHT22;19087;51.062;3.754;2023-08-08T09:51:59;22.60;95.80
32698;DHT22;19087;51.062;3.754;2023-08-08T09:54:25;22.60;95.60
32698;DHT22;19087;51.062;3.754;2023-08-08T09:56:51;22.20;96.30
32698;DHT22;19087;51.062;3.754;2023-08-08T09:59:18;22.00;95.80
32698;DHT22;19087;51.062;3.754;2023-08-08T10:01:44;21.90;96.20
32698;DHT22;19087;51.062;3.754;2023-08-08T10:04:12;21.90;96.60
32698;DHT22;19087;51.062;3.754;2023-08-08T10:06:38;21.80;96.50
32698;DHT22;19087;51.062;3.754;2023-08-08T10:09:05;21.70;96.00
32698;DHT22;19087;51.062;3.754;2023-08-08T10:11:32;21.50;96.30
32698;DHT22;19087;51.062;3.754;2023-08-08T10:14:00;21.40;96.20
32698;DHT22;19087;51.062;3.754;2023-08-08T10:16:26;21.50;96.70
32698;DHT22;19087;51.062;3.754;2023-08-08T10:18:59;21.70;97.00
32698;DHT22;19087;51.062;3.754;2023-08-08T10:21:25;22.00;96.70
32698;DHT22;19087;51.062;3.754;2023-08-08T10:24:09;22.20;95.60
32698;DHT22;19087;51.062;3.754;2023-08-08T10:26:59;22.40;95.20
32698;DHT22;19087;51.062;3.754;2023-08-08T10:29:28;22.50;95.30
32698;DHT22;19087;51.062;3.754;2023-08-08T10:32:03;22.60;95.40
32698;DHT22;19087;51.062;3.754;2023-08-08T10:34:43;22.40;95.30
32698;DHT22;19087;51.062;3.754;2023-08-08T10:37:16;22.60;95.40
32698;DHT22;19087;51.062;3.754;2023-08-08T10:39:54;22.70;94.70
32698;DHT22;19087;51.062;3.754;2023-08-08T10:42:22;22.70;94.00
32698;DHT22;19087;51.062;3.754;2023-08-08T10:45:01;22.60;93.70
32698;DHT22;19087;51.062;3.754;2023-08-08T10:47:31;22.60;94.30
32698;DHT22;19087;51.062;3.754;2023-08-08T10:50:10;22.70;94.40
32698;DHT22;19087;51.062;3.754;2023-08-08T10:55:23;23.00;94.10
32698;DHT22;19087;51.062;3.754;2023-08-08T10:58:13;22.60;94.40
32698;DHT22;19087;51.062;3.754;2023-08-08T11:00:41;22.50;94.00
32698;DHT22;19087;51.062;3.754;2023-08-08T11:03:07;22.30;94.30
32698;DHT22;19087;51.062;3.754;2023-08-08T11:05:36;22.10;94.70
32698;DHT22;19087;51.062;3.754;2023-08-08T11:08:06;22.00;95.00
32698;DHT22;19087;51.062;3.754;2023-08-08T11:10:38;22.10;95.10
32698;DHT22;19087;51.062;3.754;2023-08-08T11:13:07;22.30;94.80
32698;DHT22;19087;51.062;3.754;2023-08-08T11:15:34;22.30;94.60
32698;DHT22;19087;51.062;3.754;2023-08-08T11:18:01;22.00;94.50
32698;DHT22;19087;51.062;3.754;2023-08-08T11:20:32;22.20;94.60
32698;DHT22;19087;51.062;3.754;2023-08-08T11:22:59;22.40;94.60
32698;DHT22;19087;51.062;3.754;2023-08-08T11:25:26;22.70;94.50
32698;DHT22;19087;51.062;3.754;2023-08-08T11:27:53;22.70;94.20
32698;DHT22;19087;51.062;3.754;2023-08-08T11:30:20;22.80;94.50
32698;DHT22;19087;51.062;3.754;2023-08-08T11:32:47;23.00;94.10
32698;DHT22;19087;51.062;3.754;2023-08-08T11:35:25;23.20;94.00
32698;DHT22;19087;51.062;3.754;2023-08-08T11:37:53;23.40;93.20
32698;DHT22;19087;51.062;3.754;2023-08-08T11:40:20;23.60;93.40
32698;DHT22;19087;51.062;3.754;2023-08-08T11:42:48;23.50;92.90
32698;DHT22;19087;51.062;3.754;2023-08-08T11:45:16;23.40;92.70
32698;DHT22;19087;51.062;3.754;2023-08-08T11:47:42;23.40;93.10
32698;DHT22;19087;51.062;3.754;2023-08-08T11:50:09;23.50;92.60
32698;DHT22;19087;51.062;3.754;2023-08-08T11:52:40;23.90;92.30
32698;DHT22;19087;51.062;3.754;2023-08-08T11:55:07;24.00;92.30
32698;DHT22;19087;51.062;3.754;2023-08-08T11:57:39;24.00;91.60
32698;DHT22;19087;51.062;3.754;2023-08-08T12:00:10;24.10;91.70
32698;DHT22;19087;51.062;3.754;2023-08-08T12:02:42;24.30;91.40
32698;DHT22;19087;51.062;3.754;2023-08-08T12:05:12;24.40;91.80
32698;DHT22;19087;51.062;3.754;2023-08-08T12:07:40;24.40;91.50
32698;DHT22;19087;51.062;3.754;2023-08-08T12:10:20;24.40;91.40
32698;DHT22;19087;51.062;3.754;2023-08-08T12:12:53;24.40;91.40
32698;DHT22;19087;51.062;3.754;2023-08-08T12:15:20;24.40;91.70
32698;DHT22;19087;51.062;3.754;2023-08-08T12:17:46;24.40;91.50
32698;DHT22;19087;51.062;3.754;2023-08-08T12:20:14;24.70;91.30
32698;DHT22;19087;51.062;3.754;2023-08-08T12:22:40;24.90;90.80
32698;DHT22;19087;51.062;3.754;2023-08-08T12:25:06;25.10;90.80
32698;DHT22;19087;51.062;3.754;2023-08-08T12:27:34;25.20;90.60
32698;DHT22;19087;51.062;3.754;2023-08-08T12:29:59;25.30;90.50
32698;DHT22;19087;51.062;3.754;2023-08-08T12:32:27;25.40;90.50
32698;DHT22;19087;51.062;3.754;2023-08-08T12:34:54;25.70;89.20
32698;DHT22;19087;51.062;3.754;2023-08-08T12:37:23;25.80;89.20
32698;DHT22;19087;51.062;3.754;2023-08-08T12:39:51;25.50;88.90
32698;DHT22;19087;51.062;3.754;2023-08-08T12:42:17;25.40;89.70
32698;DHT22;19087;51.062;3.754;2023-08-08T12:44:46;25.30;89.10
32698;DHT22;19087;51.062;3.754;2023-08-08T12:47:15;25.10;89.20
32698;DHT22;19087;51.062;3.754;2023-08-08T12:49:47;25.10;90.00
32698;DHT22;19087;51.062;3.754;2023-08-08T12:52:13;25.30;89.80
32698;DHT22;19087;51.062;3.754;2023-08-08T12:54:40;25.30;89.50
32698;DHT22;19087;51.062;3.754;2023-08-08T12:57:09;25.20;89.20
32698;DHT22;19087;51.062;3.754;2023-08-08T12:59:53;25.10;89.10
32698;DHT22;19087;51.062;3.754;2023-08-08T13:02:25;25.00;90.10
32698;DHT22;19087;51.062;3.754;2023-08-08T13:04:52;25.20;89.10
32698;DHT22;19087;51.062;3.754;2023-08-08T13:07:41;25.20;88.90
32698;DHT22;19087;51.062;3.754;2023-08-08T13:10:09;25.30;88.90
32698;DHT22;19087;51.062;3.754;2023-08-08T13:12:36;25.30;87.70
32698;DHT22;19087;51.062;3.754;2023-08-08T13:15:02;25.10;88.30
32698;DHT22;19087;51.062;3.754;2023-08-08T13:17:32;25.00;88.30
32698;DHT22;19087;51.062;3.754;2023-08-08T13:19:57;24.90;89.30
32698;DHT22;19087;51.062;3.754;2023-08-08T13:22:32;25.00;89.00
32698;DHT22;19087;51.062;3.754;2023-08-08T13:25:23;25.10;88.20
32698;DHT22;19087;51.062;3.754;2023-08-08T13:27:49;25.10;88.60
32698;DHT22;19087;51.062;3.754;2023-08-08T13:30:16;24.80;88.30
32698;DHT22;19087;51.062;3.754;2023-08-08T13:32:44;24.70;89.80
32698;DHT22;19087;51.062;3.754;2023-08-08T13:35:10;24.50;90.10
32698;DHT22;19087;51.062;3.754;2023-08-08T13:37:37;24.30;90.50
32698;DHT22;19087;51.062;3.754;2023-08-08T13:40:09;24.00;91.00
32698;DHT22;19087;51.062;3.754;2023-08-08T13:42:36;24.00;91.40
32698;DHT22;19087;51.062;3.754;2023-08-08T13:45:05;23.80;91.50
32698;DHT22;19087;51.062;3.754;2023-08-08T13:47:38;23.70;91.50
32698;DHT22;19087;51.062;3.754;2023-08-08T13:50:11;23.60;92.10
32698;DHT22;19087;51.062;3.754;2023-08-08T13:52:49;23.50;92.30
32698;DHT22;19087;51.062;3.754;2023-08-08T13:55:26;23.30;92.70
32698;DHT22;19087;51.062;3.754;2023-08-08T13:57:57;23.30;92.90
32698;DHT22;19087;51.062;3.754;2023-08-08T14:00:41;23.20;93.10
32698;DHT22;19087;51.062;3.754;2023-08-08T14:03:07;23.20;93.10
32698;DHT22;19087;51.062;3.754;2023-08-08T14:05:32;23.00;93.50
32698;DHT22;19087;51.062;3.754;2023-08-08T14:07:58;23.00;93.70
32698;DHT22;19087;51.062;3.754;2023-08-08T14:10:24;22.80;94.00
32698;DHT22;19087;51.062;3.754;2023-08-08T14:12:53;22.50;94.20
32698;DHT22;19087;51.062;3.754;2023-08-08T14:15:21;22.50;94.50
32698;DHT22;19087;51.062;3.754;2023-08-08T14:17:47;22.20;95.00
32698;DHT22;19087;51.062;3.754;2023-08-08T14:20:33;22.10;95.40
32698;DHT22;19087;51.062;3.754;2023-08-08T14:22:59;22.00;95.70
32698;DHT22;19087;51.062;3.754;2023-08-08T14:25:26;22.00;95.80
32698;DHT22;19087;51.062;3.754;2023-08-08T14:28:04;21.90;95.90
32698;DHT22;19087;51.062;3.754;2023-08-08T14:30:40;21.80;96.30
32698;DHT22;19087;51.062;3.754;2023-08-08T14:33:22;21.70;96.50
32698;DHT22;19087;51.062;3.754;2023-08-08T14:35:57;21.60;96.80
32698;DHT22;19087;51.062;3.754;2023-08-08T14:38:25;21.60;96.90
32698;DHT22;19087;51.062;3.754;2023-08-08T14:40:52;21.40;97.10
32698;DHT22;19087;51.062;3.754;2023-08-08T14:43:20;21.40;97.50
32698;DHT22;19087;51.062;3.754;2023-08-08T14:45:46;21.30;97.70
32698;DHT22;19087;51.062;3.754;2023-08-08T14:48:12;21.30;98.20
32698;DHT22;19087;51.062;3.754;2023-08-08T14:50:37;21.40;98.60
32698;DHT22;19087;51.062;3.754;2023-08-08T14:53:03;21.30;99.40
32698;DHT22;19087;51.062;3.754;2023-08-08T14:55:30;21.30;99.80
32698;DHT22;19087;51.062;3.754;2023-08-08T14:57:56;21.30;99.90
32698;DHT22;19087;51.062;3.754;2023-08-08T15:00:22;21.40;99.90
32698;DHT22;19087;51.062;3.754;2023-08-08T15:02:52;21.30;99.90
32698;DHT22;19087;51.062;3.754;2023-08-08T15:05:18;21.20;99.90
32698;DHT22;19087;51.062;3.754;2023-08-08T15:07:43;21.30;99.90
32698;DHT22;19087;51.062;3.754;2023-08-08T15:10:09;21.20;99.90
32698;DHT22;19087;51.062;3.754;2023-08-08T15:12:36;21.30;99.90
32698;DHT22;19087;51.062;3.754;2023-08-08T15:15:02;21.40;99.90
32698;DHT22;19087;51.062;3.754;2023-08-08T15:17:31;21.40;99.90
32698;DHT22;19087;51.062;3.754;2023-08-08T15:19:58;21.30;99.90
32698;DHT22;19087;51.062;3.754;2023-08-08T15:22:23;21.20;99.90
32698;DHT22;19087;51.062;3.754;2023-08-08T15:24:49;21.30;99.90
32698;DHT22;19087;51.062;3.754;2023-08-08T15:27:16;21.30;99.90
32698;DHT22;19087;51.062;3.754;2023-08-08T15:29:41;21.30;99.90
32698;DHT22;19087;51.062;3.754;2023-08-08T15:32:07;21.40;99.90
32698;DHT22;19087;51.062;3.754;2023-08-08T15:34:33;21.60;99.90
32698;DHT22;19087;51.062;3.754;2023-08-08T15:36:59;21.60;99.90
32698;DHT22;19087;51.062;3.754;2023-08-08T15:39:27;21.60;99.90
32698;DHT22;19087;51.062;3.754;2023-08-08T15:41:53;21.60;99.90